EXS3SR EGNT-LGSK
Flight info
| Callsign | EXS3SR |
|---|---|
| Flight time | 3h 28m |
| Altitude | 33000 |
| Route | GIRLI P18 GASKO P16 RIBEL UP16 CROFT UL612 BARTN/N0459F350 UL612 HON L15 FINMA DCT CHT DCT ITVIP DCT KONAN DCT KOK UL607 REMBA DCT LIRSU DCT ULNOK DCT VIBOM DCT NOMBO DCT RIDAR DCT RADIZ DCT NEMEK DCT ETOBI DCT MEDUX UM867 KOGAT DCT ERANA UL737 TSL UL617 IBIDI |
| Aircraft | B738/M-SDE2E3FGHIRWXY/LB1 |
Departure
| Time | 2026-05-08 13:34 |
|---|---|
| Airport | Newcastle International Airport (EGNT) |
Arrival
| Time | 2026-05-08 17:03 |
|---|---|
| Airport | Skiathos Island National Airport (LGSK) |
| Time | Latitude | Longitude | Altitude | Speed | Heading |
|---|---|---|---|---|---|
| 2026-05-08 13:05 | 55.03738 | -1.70760 | 266 ft | 0 kts | 184° |
| 2026-05-08 13:26 | 55.03743 | -1.70759 | 266 ft | 4 kts | 184° |
| 2026-05-08 13:26 | 55.03764 | -1.70757 | 266 ft | 3 kts | 184° |
| 2026-05-08 13:26 | 55.03790 | -1.70756 | 266 ft | 4 kts | 166° |
| 2026-05-08 13:26 | 55.03809 | -1.70775 | 266 ft | 4 kts | 103° |
| 2026-05-08 13:27 | 55.03812 | -1.70818 | 266 ft | 3 kts | 94° |
| 2026-05-08 13:27 | 55.03812 | -1.70822 | 266 ft | 1 kts | 94° |
| 2026-05-08 13:30 | 55.03811 | -1.70797 | 266 ft | 6 kts | 95° |
| 2026-05-08 13:30 | 55.03805 | -1.70667 | 266 ft | 14 kts | 94° |
| 2026-05-08 13:31 | 55.03797 | -1.70499 | 266 ft | 14 kts | 100° |
| 2026-05-08 13:31 | 55.03725 | -1.70431 | 266 ft | 13 kts | 184° |
| 2026-05-08 13:31 | 55.03638 | -1.70445 | 266 ft | 13 kts | 193° |
| 2026-05-08 13:31 | 55.03592 | -1.70562 | 266 ft | 12 kts | 260° |
| 2026-05-08 13:32 | 55.03577 | -1.70615 | 266 ft | 0 kts | 229° |
| 2026-05-08 13:32 | 55.03574 | -1.70621 | 266 ft | 2 kts | 225° |
| 2026-05-08 13:32 | 55.03536 | -1.70647 | 266 ft | 9 kts | 175° |
| 2026-05-08 13:33 | 55.03470 | -1.70646 | 266 ft | 9 kts | 181° |
| 2026-05-08 13:33 | 55.03405 | -1.70646 | 267 ft | 9 kts | 173° |
| 2026-05-08 13:33 | 55.03370 | -1.70571 | 267 ft | 9 kts | 82° |
| 2026-05-08 13:33 | 55.03377 | -1.70543 | 266 ft | 0 kts | 64° |
| 2026-05-08 13:34 | 55.03402 | -1.70449 | 265 ft | 35 kts | 65° |
| 2026-05-08 13:34 | 55.03617 | -1.69641 | 258 ft | 110 kts | 65° |
| 2026-05-08 13:34 | 55.04028 | -1.68091 | 252 ft | 169 kts | 66° |
| 2026-05-08 13:34 | 55.04544 | -1.66171 | 927 ft | 173 kts | 66° |
| 2026-05-08 13:35 | 55.05066 | -1.64257 | 1698 ft | 183 kts | 64° |
| 2026-05-08 13:35 | 55.05675 | -1.62117 | 2112 ft | 210 kts | 65° |
| 2026-05-08 13:35 | 55.06253 | -1.59699 | 2617 ft | 221 kts | 83° |
| 2026-05-08 13:35 | 55.06061 | -1.57053 | 3218 ft | 224 kts | 116° |
| 2026-05-08 13:36 | 55.05232 | -1.54711 | 3775 ft | 236 kts | 130° |
| 2026-05-08 13:36 | 55.03899 | -1.52893 | 4066 ft | 254 kts | 166° |
| 2026-05-08 13:36 | 55.02145 | -1.52753 | 4855 ft | 255 kts | 187° |
| 2026-05-08 13:36 | 55.00360 | -1.52970 | 5710 ft | 259 kts | 185° |
| 2026-05-08 13:37 | 54.98556 | -1.53102 | 6557 ft | 262 kts | 186° |
| 2026-05-08 13:37 | 54.96785 | -1.53933 | 7341 ft | 262 kts | 209° |
| 2026-05-08 13:37 | 54.95214 | -1.55496 | 7897 ft | 262 kts | 211° |
| 2026-05-08 13:37 | 54.93539 | -1.56788 | 8685 ft | 266 kts | 199° |
| 2026-05-08 13:38 | 54.91763 | -1.57730 | 9591 ft | 267 kts | 198° |
| 2026-05-08 13:38 | 54.89977 | -1.58671 | 10387 ft | 271 kts | 199° |
| 2026-05-08 13:38 | 54.88107 | -1.59669 | 10665 ft | 293 kts | 199° |
| 2026-05-08 13:38 | 54.86080 | -1.60765 | 10862 ft | 316 kts | 199° |
| 2026-05-08 13:39 | 54.83905 | -1.61953 | 11046 ft | 338 kts | 199° |
| 2026-05-08 13:39 | 54.81596 | -1.63221 | 11253 ft | 357 kts | 199° |
| 2026-05-08 13:39 | 54.79187 | -1.64548 | 11752 ft | 366 kts | 199° |
| 2026-05-08 13:39 | 54.76747 | -1.65895 | 12450 ft | 369 kts | 199° |
| 2026-05-08 13:40 | 54.74288 | -1.67254 | 13172 ft | 372 kts | 199° |
| 2026-05-08 13:40 | 54.71808 | -1.68625 | 13802 ft | 377 kts | 198° |
| 2026-05-08 13:40 | 54.69295 | -1.70016 | 14369 ft | 381 kts | 198° |
| 2026-05-08 13:40 | 54.66761 | -1.71415 | 15006 ft | 383 kts | 198° |
| 2026-05-08 13:41 | 54.64212 | -1.72822 | 15617 ft | 386 kts | 198° |
| 2026-05-08 13:41 | 54.61634 | -1.74186 | 16183 ft | 390 kts | 195° |
| 2026-05-08 13:41 | 54.58925 | -1.74830 | 16688 ft | 397 kts | 182° |
| 2026-05-08 13:41 | 54.56140 | -1.74706 | 17264 ft | 401 kts | 180° |
| 2026-05-08 13:42 | 54.53341 | -1.74539 | 17827 ft | 404 kts | 180° |
| 2026-05-08 13:42 | 54.50515 | -1.74388 | 18372 ft | 408 kts | 180° |
| 2026-05-08 13:42 | 54.47670 | -1.74251 | 18838 ft | 411 kts | 181° |
| 2026-05-08 13:42 | 54.44802 | -1.74125 | 19285 ft | 414 kts | 181° |
| 2026-05-08 13:43 | 54.41947 | -1.74007 | 19742 ft | 417 kts | 181° |
| 2026-05-08 13:43 | 54.39036 | -1.73891 | 20208 ft | 420 kts | 181° |
| 2026-05-08 13:43 | 54.36103 | -1.73777 | 20660 ft | 423 kts | 181° |
| 2026-05-08 13:43 | 54.33150 | -1.73663 | 21099 ft | 426 kts | 181° |
| 2026-05-08 13:44 | 54.30181 | -1.73550 | 21524 ft | 428 kts | 181° |
| 2026-05-08 13:44 | 54.27183 | -1.73435 | 21943 ft | 431 kts | 181° |
| 2026-05-08 13:44 | 54.24171 | -1.73320 | 22382 ft | 434 kts | 181° |
| 2026-05-08 13:44 | 54.21145 | -1.73205 | 22755 ft | 438 kts | 181° |
| 2026-05-08 13:45 | 54.18080 | -1.73088 | 23081 ft | 442 kts | 181° |
| 2026-05-08 13:45 | 54.14990 | -1.72970 | 23467 ft | 445 kts | 181° |
| 2026-05-08 13:45 | 54.11890 | -1.72851 | 23839 ft | 447 kts | 181° |
| 2026-05-08 13:45 | 54.08776 | -1.72732 | 24156 ft | 449 kts | 181° |
| 2026-05-08 13:46 | 54.05644 | -1.72612 | 24477 ft | 451 kts | 181° |
| 2026-05-08 13:46 | 54.02498 | -1.72493 | 24769 ft | 454 kts | 181° |
| 2026-05-08 13:46 | 53.99363 | -1.72374 | 25061 ft | 456 kts | 181° |
| 2026-05-08 13:46 | 53.96184 | -1.72254 | 25353 ft | 458 kts | 181° |
| 2026-05-08 13:47 | 53.92982 | -1.72133 | 25612 ft | 461 kts | 181° |
| 2026-05-08 13:47 | 53.89763 | -1.72012 | 25901 ft | 463 kts | 182° |
| 2026-05-08 13:47 | 53.86539 | -1.71890 | 26189 ft | 465 kts | 182° |
| 2026-05-08 13:47 | 53.83292 | -1.71768 | 26464 ft | 467 kts | 182° |
| 2026-05-08 13:48 | 53.80037 | -1.71645 | 26788 ft | 468 kts | 182° |
| 2026-05-08 13:48 | 53.76789 | -1.71522 | 27200 ft | 466 kts | 182° |
| 2026-05-08 13:48 | 53.73545 | -1.71399 | 27615 ft | 465 kts | 182° |
| 2026-05-08 13:48 | 53.70298 | -1.71276 | 27910 ft | 466 kts | 182° |
| 2026-05-08 13:49 | 53.67044 | -1.71156 | 28183 ft | 468 kts | 182° |
| 2026-05-08 13:49 | 53.63789 | -1.71035 | 28560 ft | 468 kts | 182° |
| 2026-05-08 13:49 | 53.60539 | -1.70913 | 29009 ft | 466 kts | 182° |
| 2026-05-08 13:49 | 53.57309 | -1.70792 | 29443 ft | 464 kts | 183° |
| 2026-05-08 13:50 | 53.54072 | -1.70671 | 29817 ft | 464 kts | 183° |
| 2026-05-08 13:50 | 53.50843 | -1.70552 | 30167 ft | 464 kts | 183° |
| 2026-05-08 13:50 | 53.47651 | -1.70434 | 30471 ft | 464 kts | 183° |
| 2026-05-08 13:50 | 53.44426 | -1.70315 | 30802 ft | 463 kts | 183° |
| 2026-05-08 13:51 | 53.41206 | -1.70196 | 31133 ft | 462 kts | 184° |
| 2026-05-08 13:51 | 53.37993 | -1.70077 | 31432 ft | 462 kts | 184° |
| 2026-05-08 13:51 | 53.34788 | -1.69959 | 31748 ft | 461 kts | 184° |
| 2026-05-08 13:51 | 53.31583 | -1.69842 | 32083 ft | 460 kts | 184° |
| 2026-05-08 13:52 | 53.28386 | -1.69723 | 32405 ft | 459 kts | 184° |
| 2026-05-08 13:52 | 53.25199 | -1.69606 | 32705 ft | 458 kts | 184° |
| 2026-05-08 13:52 | 53.22011 | -1.69491 | 32977 ft | 458 kts | 184° |
| 2026-05-08 13:52 | 53.18816 | -1.69377 | 33095 ft | 461 kts | 184° |
| 2026-05-08 13:53 | 53.12375 | -1.69144 | 33090 ft | 462 kts | 184° |
| 2026-05-08 13:53 | 53.05978 | -1.68907 | 33090 ft | 458 kts | 184° |
| 2026-05-08 13:54 | 52.99617 | -1.68676 | 33066 ft | 456 kts | 184° |
| 2026-05-08 13:54 | 52.93293 | -1.68448 | 33081 ft | 454 kts | 184° |
| 2026-05-08 13:55 | 52.86963 | -1.68222 | 33079 ft | 455 kts | 184° |
| 2026-05-08 13:56 | 52.77438 | -1.67882 | 33075 ft | 457 kts | 184° |
| 2026-05-08 13:56 | 52.71116 | -1.67656 | 33034 ft | 458 kts | 184° |
| 2026-05-08 13:57 | 52.64735 | -1.67428 | 33040 ft | 459 kts | 184° |
| 2026-05-08 13:57 | 52.58335 | -1.67201 | 33081 ft | 461 kts | 184° |
| 2026-05-08 13:58 | 52.51907 | -1.66973 | 33077 ft | 462 kts | 184° |
| 2026-05-08 13:58 | 52.45470 | -1.66744 | 33075 ft | 463 kts | 184° |
| 2026-05-08 13:59 | 52.39037 | -1.66078 | 33047 ft | 472 kts | 168° |
| 2026-05-08 13:59 | 52.36015 | -1.63868 | 33092 ft | 482 kts | 150° |
| 2026-05-08 13:59 | 52.33427 | -1.60315 | 33065 ft | 491 kts | 133° |
| 2026-05-08 14:00 | 52.30291 | -1.52550 | 33099 ft | 495 kts | 123° |
| 2026-05-08 14:00 | 52.26770 | -1.42870 | 33085 ft | 495 kts | 122° |
| 2026-05-08 14:01 | 52.23217 | -1.33229 | 33101 ft | 495 kts | 123° |
| 2026-05-08 14:01 | 52.19615 | -1.23660 | 33103 ft | 495 kts | 123° |
| 2026-05-08 14:02 | 52.15986 | -1.14127 | 33099 ft | 495 kts | 123° |
| 2026-05-08 14:02 | 52.12349 | -1.04613 | 33086 ft | 494 kts | 123° |
| 2026-05-08 14:03 | 52.08718 | -0.95140 | 33081 ft | 494 kts | 123° |
| 2026-05-08 14:03 | 52.05075 | -0.85668 | 33072 ft | 493 kts | 123° |
| 2026-05-08 14:04 | 52.01431 | -0.76225 | 33074 ft | 493 kts | 123° |
| 2026-05-08 14:04 | 51.97782 | -0.66806 | 33092 ft | 493 kts | 123° |
| 2026-05-08 14:05 | 51.94121 | -0.57392 | 33092 ft | 494 kts | 123° |
| 2026-05-08 14:05 | 51.90472 | -0.48041 | 33101 ft | 494 kts | 123° |
| 2026-05-08 14:06 | 51.86793 | -0.38650 | 33105 ft | 494 kts | 123° |
| 2026-05-08 14:06 | 51.83102 | -0.29261 | 33105 ft | 495 kts | 123° |
| 2026-05-08 14:07 | 51.79401 | -0.19882 | 33115 ft | 495 kts | 123° |
| 2026-05-08 14:07 | 51.75692 | -0.10516 | 33127 ft | 495 kts | 123° |
| 2026-05-08 14:08 | 51.71974 | -0.01162 | 33119 ft | 495 kts | 123° |
| 2026-05-08 14:08 | 51.68245 | 0.08185 | 33094 ft | 496 kts | 123° |
| 2026-05-08 14:09 | 51.64504 | 0.17529 | 33098 ft | 496 kts | 123° |
| 2026-05-08 14:09 | 51.60755 | 0.26859 | 33093 ft | 496 kts | 123° |
| 2026-05-08 14:10 | 51.57002 | 0.36167 | 33083 ft | 496 kts | 123° |
| 2026-05-08 14:10 | 51.53234 | 0.45476 | 33099 ft | 496 kts | 123° |
| 2026-05-08 14:11 | 51.49456 | 0.54776 | 33102 ft | 496 kts | 122° |
| 2026-05-08 14:11 | 51.45698 | 0.63997 | 33105 ft | 496 kts | 123° |
| 2026-05-08 14:12 | 51.41888 | 0.73309 | 33094 ft | 496 kts | 123° |
| 2026-05-08 14:12 | 51.38119 | 0.82492 | 33100 ft | 496 kts | 123° |
| 2026-05-08 14:13 | 51.34320 | 0.91715 | 33096 ft | 496 kts | 123° |
| 2026-05-08 14:13 | 51.30517 | 1.00926 | 33097 ft | 496 kts | 121° |
| 2026-05-08 14:14 | 51.27659 | 1.10856 | 33093 ft | 491 kts | 102° |
| 2026-05-08 14:14 | 51.26015 | 1.21425 | 33099 ft | 490 kts | 101° |
| 2026-05-08 14:15 | 51.24369 | 1.32010 | 33096 ft | 491 kts | 101° |
| 2026-05-08 14:15 | 51.22661 | 1.42591 | 33097 ft | 492 kts | 102° |
| 2026-05-08 14:16 | 51.20936 | 1.53076 | 33105 ft | 492 kts | 101° |
| 2026-05-08 14:16 | 51.19192 | 1.63611 | 33093 ft | 491 kts | 101° |
| 2026-05-08 14:17 | 51.17443 | 1.74132 | 33092 ft | 490 kts | 101° |
| 2026-05-08 14:17 | 51.15689 | 1.84624 | 33096 ft | 490 kts | 101° |
| 2026-05-08 14:18 | 51.13931 | 1.95087 | 33095 ft | 488 kts | 102° |
| 2026-05-08 14:18 | 51.12639 | 2.05629 | 33089 ft | 481 kts | 91° |
| 2026-05-08 14:19 | 51.12152 | 2.16217 | 33079 ft | 479 kts | 90° |
| 2026-05-08 14:19 | 51.11657 | 2.26755 | 33090 ft | 477 kts | 91° |
| 2026-05-08 14:20 | 51.11091 | 2.37269 | 33107 ft | 476 kts | 92° |
| 2026-05-08 14:20 | 51.10499 | 2.47760 | 33091 ft | 475 kts | 92° |
| 2026-05-08 14:21 | 51.09902 | 2.58234 | 33086 ft | 475 kts | 92° |
| 2026-05-08 14:21 | 51.09031 | 2.68633 | 33076 ft | 477 kts | 103° |
| 2026-05-08 14:22 | 51.07172 | 2.78767 | 33081 ft | 477 kts | 105° |
| 2026-05-08 14:22 | 51.05242 | 2.88857 | 33115 ft | 477 kts | 105° |
| 2026-05-08 14:23 | 51.03361 | 2.98958 | 33092 ft | 477 kts | 105° |
| 2026-05-08 14:23 | 51.01503 | 3.09070 | 33088 ft | 476 kts | 105° |
| 2026-05-08 14:24 | 50.99645 | 3.19153 | 33084 ft | 476 kts | 105° |
| 2026-05-08 14:24 | 50.97776 | 3.29225 | 33078 ft | 476 kts | 105° |
| 2026-05-08 14:25 | 50.95900 | 3.39278 | 33084 ft | 476 kts | 106° |
| 2026-05-08 14:25 | 50.94954 | 3.44325 | 33221 ft | 478 kts | 106° |
| 2026-05-08 14:25 | 50.94004 | 3.49375 | 33536 ft | 476 kts | 106° |
| 2026-05-08 14:25 | 50.93060 | 3.54392 | 33898 ft | 474 kts | 106° |
| 2026-05-08 14:26 | 50.92118 | 3.59383 | 34217 ft | 473 kts | 106° |
| 2026-05-08 14:26 | 50.91170 | 3.64384 | 34425 ft | 474 kts | 106° |
| 2026-05-08 14:26 | 50.90211 | 3.69391 | 34568 ft | 475 kts | 107° |
| 2026-05-08 14:26 | 50.89255 | 3.74336 | 34763 ft | 476 kts | 107° |
| 2026-05-08 14:27 | 50.88283 | 3.79341 | 35000 ft | 475 kts | 107° |
| 2026-05-08 14:27 | 50.86329 | 3.89371 | 35079 ft | 478 kts | 107° |
| 2026-05-08 14:28 | 50.84371 | 3.99389 | 35090 ft | 475 kts | 107° |
| 2026-05-08 14:28 | 50.82416 | 4.09348 | 35097 ft | 472 kts | 108° |
| 2026-05-08 14:29 | 50.80464 | 4.19243 | 35099 ft | 470 kts | 108° |
| 2026-05-08 14:29 | 50.78536 | 4.28969 | 35091 ft | 470 kts | 108° |
| 2026-05-08 14:30 | 50.77815 | 4.32590 | 35095 ft | 469 kts | 108° |
| 2026-05-08 14:30 | 50.75851 | 4.42429 | 35102 ft | 470 kts | 108° |
| 2026-05-08 14:31 | 50.73872 | 4.52300 | 35104 ft | 472 kts | 108° |
| 2026-05-08 14:31 | 50.71893 | 4.62131 | 35107 ft | 474 kts | 108° |
| 2026-05-08 14:32 | 50.68994 | 4.77089 | 35091 ft | 476 kts | 108° |
| 2026-05-08 14:32 | 50.67050 | 4.87075 | 35090 ft | 477 kts | 108° |
| 2026-05-08 14:33 | 50.64741 | 4.96882 | 35092 ft | 476 kts | 116° |
| 2026-05-08 14:33 | 50.61858 | 5.06282 | 35086 ft | 476 kts | 117° |
| 2026-05-08 14:34 | 50.58938 | 5.15643 | 35091 ft | 476 kts | 117° |
| 2026-05-08 14:34 | 50.56064 | 5.25022 | 35094 ft | 476 kts | 117° |
| 2026-05-08 14:35 | 50.53211 | 5.34409 | 35090 ft | 476 kts | 117° |
| 2026-05-08 14:35 | 50.50355 | 5.43789 | 35081 ft | 475 kts | 117° |
| 2026-05-08 14:36 | 50.47495 | 5.53140 | 35085 ft | 475 kts | 117° |
| 2026-05-08 14:36 | 50.44632 | 5.62459 | 35087 ft | 474 kts | 117° |
| 2026-05-08 14:37 | 50.41756 | 5.71783 | 35082 ft | 474 kts | 117° |
| 2026-05-08 14:37 | 50.38880 | 5.81072 | 35078 ft | 474 kts | 117° |
| 2026-05-08 14:38 | 50.36012 | 5.90301 | 35080 ft | 474 kts | 117° |
| 2026-05-08 14:38 | 50.33120 | 5.99573 | 35079 ft | 474 kts | 117° |
| 2026-05-08 14:39 | 50.30219 | 6.08836 | 35076 ft | 474 kts | 118° |
| 2026-05-08 14:39 | 50.27312 | 6.18089 | 35077 ft | 474 kts | 118° |
| 2026-05-08 14:40 | 50.24390 | 6.27353 | 35068 ft | 474 kts | 118° |
| 2026-05-08 14:40 | 50.21449 | 6.36648 | 35074 ft | 474 kts | 118° |
| 2026-05-08 14:41 | 50.18603 | 6.45944 | 35063 ft | 476 kts | 112° |
| 2026-05-08 14:41 | 50.16838 | 6.55912 | 35074 ft | 478 kts | 105° |
| 2026-05-08 14:42 | 50.15277 | 6.65915 | 35084 ft | 477 kts | 105° |
| 2026-05-08 14:42 | 50.13666 | 6.75971 | 35079 ft | 477 kts | 106° |
| 2026-05-08 14:43 | 50.12007 | 6.85978 | 35101 ft | 477 kts | 106° |
| 2026-05-08 14:43 | 50.10333 | 6.95982 | 35100 ft | 477 kts | 107° |
| 2026-05-08 14:44 | 50.08930 | 7.04341 | 35101 ft | 477 kts | 107° |
| 2026-05-08 14:44 | 50.07246 | 7.14331 | 35101 ft | 476 kts | 107° |
| 2026-05-08 14:45 | 50.05556 | 7.24305 | 35104 ft | 476 kts | 107° |
| 2026-05-08 14:45 | 50.03861 | 7.34251 | 35099 ft | 476 kts | 107° |
| 2026-05-08 14:46 | 50.02155 | 7.44200 | 35099 ft | 475 kts | 107° |
| 2026-05-08 14:46 | 50.00434 | 7.54186 | 35090 ft | 475 kts | 107° |
| 2026-05-08 14:47 | 49.98726 | 7.64035 | 35087 ft | 475 kts | 107° |
| 2026-05-08 14:47 | 49.97000 | 7.73933 | 35082 ft | 474 kts | 107° |
| 2026-05-08 14:48 | 49.95273 | 7.83786 | 35089 ft | 472 kts | 107° |
| 2026-05-08 14:48 | 49.93539 | 7.93623 | 35092 ft | 471 kts | 107° |
| 2026-05-08 14:49 | 49.91813 | 8.03366 | 35091 ft | 470 kts | 108° |
| 2026-05-08 14:49 | 49.90064 | 8.13184 | 35086 ft | 469 kts | 108° |
| 2026-05-08 14:50 | 49.88331 | 8.22868 | 35080 ft | 468 kts | 108° |
| 2026-05-08 14:50 | 49.86583 | 8.32587 | 35077 ft | 468 kts | 108° |
| 2026-05-08 14:51 | 49.84443 | 8.42050 | 35076 ft | 464 kts | 120° |
| 2026-05-08 14:51 | 49.80788 | 8.50192 | 35095 ft | 459 kts | 132° |
| 2026-05-08 14:52 | 49.74712 | 8.61703 | 35076 ft | 461 kts | 131° |
| 2026-05-08 14:53 | 49.70685 | 8.69431 | 35071 ft | 462 kts | 131° |
| 2026-05-08 14:53 | 49.66665 | 8.77187 | 35073 ft | 463 kts | 131° |
| 2026-05-08 14:54 | 49.62638 | 8.84940 | 35063 ft | 464 kts | 131° |
| 2026-05-08 14:54 | 49.58595 | 8.92697 | 35063 ft | 464 kts | 131° |
| 2026-05-08 14:55 | 49.54543 | 9.00446 | 35059 ft | 464 kts | 131° |
| 2026-05-08 14:55 | 49.50485 | 9.08194 | 35067 ft | 464 kts | 131° |
| 2026-05-08 14:56 | 49.46434 | 9.15930 | 35050 ft | 465 kts | 129° |
| 2026-05-08 14:56 | 49.42805 | 9.24168 | 35051 ft | 466 kts | 125° |
| 2026-05-08 14:57 | 49.39322 | 9.32557 | 35063 ft | 466 kts | 125° |
| 2026-05-08 14:57 | 49.35807 | 9.40912 | 35055 ft | 465 kts | 126° |
| 2026-05-08 14:58 | 49.32265 | 9.49201 | 35069 ft | 465 kts | 126° |
| 2026-05-08 14:58 | 49.28705 | 9.57473 | 35075 ft | 465 kts | 126° |
| 2026-05-08 14:59 | 49.25143 | 9.65726 | 35080 ft | 465 kts | 126° |
| 2026-05-08 14:59 | 49.19812 | 9.78041 | 35074 ft | 465 kts | 126° |
| 2026-05-08 15:00 | 49.16235 | 9.86274 | 35075 ft | 465 kts | 126° |
| 2026-05-08 15:00 | 49.12651 | 9.94501 | 35077 ft | 465 kts | 126° |
| 2026-05-08 15:01 | 49.09066 | 10.02707 | 35075 ft | 465 kts | 126° |
| 2026-05-08 15:01 | 49.05290 | 10.10701 | 35065 ft | 462 kts | 136° |
| 2026-05-08 15:02 | 49.00745 | 10.17588 | 35067 ft | 461 kts | 139° |
| 2026-05-08 15:02 | 48.96142 | 10.24401 | 35085 ft | 462 kts | 139° |
| 2026-05-08 15:03 | 48.91564 | 10.31260 | 35086 ft | 462 kts | 139° |
| 2026-05-08 15:03 | 48.86993 | 10.38151 | 35089 ft | 463 kts | 139° |
| 2026-05-08 15:04 | 48.82413 | 10.45047 | 35085 ft | 463 kts | 139° |
| 2026-05-08 15:04 | 48.77832 | 10.51923 | 35079 ft | 464 kts | 139° |
| 2026-05-08 15:05 | 48.73238 | 10.58799 | 35084 ft | 464 kts | 139° |
| 2026-05-08 15:05 | 48.68648 | 10.65649 | 35087 ft | 464 kts | 139° |
| 2026-05-08 15:06 | 48.64042 | 10.72509 | 35082 ft | 464 kts | 140° |
| 2026-05-08 15:06 | 48.59431 | 10.79355 | 35080 ft | 464 kts | 139° |
| 2026-05-08 15:07 | 48.55147 | 10.86705 | 35075 ft | 468 kts | 133° |
| 2026-05-08 15:07 | 48.51092 | 10.94393 | 35049 ft | 468 kts | 133° |
| 2026-05-08 15:08 | 48.47720 | 11.00771 | 35047 ft | 468 kts | 133° |
| 2026-05-08 15:08 | 48.42958 | 11.09635 | 35049 ft | 467 kts | 134° |
| 2026-05-08 15:09 | 48.38844 | 11.17212 | 35049 ft | 467 kts | 134° |
| 2026-05-08 15:09 | 48.34727 | 11.24766 | 35037 ft | 467 kts | 134° |
| 2026-05-08 15:10 | 48.30581 | 11.32355 | 35051 ft | 466 kts | 135° |
| 2026-05-08 15:10 | 48.26493 | 11.39817 | 35049 ft | 465 kts | 135° |
| 2026-05-08 15:11 | 48.22381 | 11.47306 | 35048 ft | 465 kts | 135° |
| 2026-05-08 15:11 | 48.18269 | 11.54772 | 35049 ft | 464 kts | 135° |
| 2026-05-08 15:12 | 48.14153 | 11.62226 | 35041 ft | 463 kts | 136° |
| 2026-05-08 15:12 | 48.10048 | 11.69640 | 35051 ft | 462 kts | 136° |
| 2026-05-08 15:13 | 48.05943 | 11.77031 | 35046 ft | 461 kts | 136° |
| 2026-05-08 15:13 | 48.01815 | 11.84444 | 35031 ft | 460 kts | 136° |
| 2026-05-08 15:14 | 47.97722 | 11.91776 | 35031 ft | 460 kts | 136° |
| 2026-05-08 15:14 | 47.93620 | 11.99102 | 35019 ft | 459 kts | 136° |
| 2026-05-08 15:15 | 47.89529 | 12.06388 | 35031 ft | 458 kts | 137° |
| 2026-05-08 15:15 | 47.85444 | 12.13647 | 35028 ft | 457 kts | 137° |
| 2026-05-08 15:16 | 47.81378 | 12.20850 | 35030 ft | 457 kts | 137° |
| 2026-05-08 15:16 | 47.77287 | 12.28081 | 35016 ft | 457 kts | 137° |
| 2026-05-08 15:17 | 47.73194 | 12.35297 | 35035 ft | 456 kts | 137° |
| 2026-05-08 15:17 | 47.69105 | 12.42489 | 35032 ft | 456 kts | 137° |
| 2026-05-08 15:18 | 47.65011 | 12.49673 | 35018 ft | 456 kts | 137° |
| 2026-05-08 15:18 | 47.60819 | 12.56681 | 35034 ft | 451 kts | 142° |
| 2026-05-08 15:19 | 47.56286 | 12.63097 | 35010 ft | 450 kts | 144° |
| 2026-05-08 15:19 | 47.51705 | 12.69395 | 35009 ft | 449 kts | 143° |
| 2026-05-08 15:20 | 47.47155 | 12.75723 | 35010 ft | 448 kts | 143° |
| 2026-05-08 15:20 | 47.42638 | 12.82055 | 35031 ft | 448 kts | 143° |
| 2026-05-08 15:21 | 47.38126 | 12.88387 | 35039 ft | 448 kts | 143° |
| 2026-05-08 15:21 | 47.33609 | 12.94714 | 35038 ft | 449 kts | 143° |
| 2026-05-08 15:22 | 47.29079 | 13.01041 | 35044 ft | 447 kts | 142° |
| 2026-05-08 15:22 | 47.24560 | 13.07337 | 35038 ft | 447 kts | 142° |
| 2026-05-08 15:23 | 47.20792 | 13.12573 | 35041 ft | 449 kts | 142° |
| 2026-05-08 15:23 | 47.16232 | 13.18893 | 35031 ft | 451 kts | 142° |
| 2026-05-08 15:24 | 47.11647 | 13.25234 | 35029 ft | 453 kts | 142° |
| 2026-05-08 15:24 | 47.07038 | 13.31594 | 35033 ft | 455 kts | 143° |
| 2026-05-08 15:25 | 47.02419 | 13.37952 | 35036 ft | 455 kts | 143° |
| 2026-05-08 15:25 | 46.97798 | 13.44298 | 35060 ft | 455 kts | 143° |
| 2026-05-08 15:26 | 46.93173 | 13.50633 | 35035 ft | 453 kts | 143° |
| 2026-05-08 15:26 | 46.88588 | 13.56895 | 35044 ft | 456 kts | 143° |
| 2026-05-08 15:27 | 46.83935 | 13.63233 | 35028 ft | 458 kts | 143° |
| 2026-05-08 15:27 | 46.79239 | 13.69616 | 35049 ft | 460 kts | 143° |
| 2026-05-08 15:28 | 46.74548 | 13.75978 | 35054 ft | 459 kts | 142° |
| 2026-05-08 15:28 | 46.69891 | 13.82279 | 35041 ft | 460 kts | 143° |
| 2026-05-08 15:29 | 46.65188 | 13.88624 | 35044 ft | 461 kts | 143° |
| 2026-05-08 15:29 | 46.60477 | 13.94964 | 35029 ft | 461 kts | 143° |
| 2026-05-08 15:30 | 46.55775 | 14.01279 | 35024 ft | 459 kts | 143° |
| 2026-05-08 15:30 | 46.51092 | 14.07552 | 35010 ft | 457 kts | 143° |
| 2026-05-08 15:31 | 46.46425 | 14.13787 | 35010 ft | 454 kts | 143° |
| 2026-05-08 15:31 | 46.41792 | 14.19963 | 35008 ft | 451 kts | 143° |
| 2026-05-08 15:32 | 46.37162 | 14.26116 | 35021 ft | 452 kts | 143° |
| 2026-05-08 15:32 | 46.32518 | 14.32273 | 35027 ft | 453 kts | 143° |
| 2026-05-08 15:33 | 46.27888 | 14.38397 | 35025 ft | 454 kts | 143° |
| 2026-05-08 15:33 | 46.23213 | 14.44568 | 35023 ft | 455 kts | 143° |
| 2026-05-08 15:34 | 46.18529 | 14.50737 | 35004 ft | 456 kts | 143° |
| 2026-05-08 15:34 | 46.13845 | 14.56891 | 35017 ft | 456 kts | 143° |
| 2026-05-08 15:35 | 46.09159 | 14.63032 | 35023 ft | 455 kts | 143° |
| 2026-05-08 15:35 | 46.04467 | 14.69167 | 35020 ft | 455 kts | 143° |
| 2026-05-08 15:36 | 45.99783 | 14.75275 | 35020 ft | 454 kts | 143° |
| 2026-05-08 15:36 | 45.95104 | 14.81365 | 35020 ft | 453 kts | 142° |
| 2026-05-08 15:37 | 45.90429 | 14.87433 | 35032 ft | 453 kts | 142° |
| 2026-05-08 15:37 | 45.85750 | 14.93493 | 35028 ft | 453 kts | 143° |
| 2026-05-08 15:38 | 45.81067 | 14.99543 | 35044 ft | 453 kts | 143° |
| 2026-05-08 15:38 | 45.76369 | 15.05600 | 35046 ft | 454 kts | 143° |
| 2026-05-08 15:39 | 45.71662 | 15.11654 | 35037 ft | 455 kts | 143° |
| 2026-05-08 15:39 | 45.66948 | 15.17704 | 35039 ft | 455 kts | 143° |
| 2026-05-08 15:40 | 45.62222 | 15.23760 | 35039 ft | 455 kts | 143° |
| 2026-05-08 15:40 | 45.57513 | 15.29804 | 35038 ft | 456 kts | 141° |
| 2026-05-08 15:41 | 45.53258 | 15.36593 | 35040 ft | 460 kts | 134° |
| 2026-05-08 15:41 | 45.49172 | 15.43638 | 35042 ft | 460 kts | 134° |
| 2026-05-08 15:42 | 45.45079 | 15.50635 | 35041 ft | 460 kts | 135° |
| 2026-05-08 15:42 | 45.40971 | 15.57550 | 35040 ft | 460 kts | 135° |
| 2026-05-08 15:43 | 45.36830 | 15.64468 | 35040 ft | 459 kts | 135° |
| 2026-05-08 15:43 | 45.32677 | 15.71384 | 35035 ft | 459 kts | 135° |
| 2026-05-08 15:44 | 45.28529 | 15.78277 | 35041 ft | 459 kts | 135° |
| 2026-05-08 15:44 | 45.24380 | 15.85156 | 35033 ft | 458 kts | 135° |
| 2026-05-08 15:45 | 45.20229 | 15.92023 | 35047 ft | 458 kts | 135° |
| 2026-05-08 15:45 | 45.16079 | 15.98871 | 35025 ft | 458 kts | 135° |
| 2026-05-08 15:46 | 45.11920 | 16.05717 | 35028 ft | 458 kts | 135° |
| 2026-05-08 15:46 | 45.07757 | 16.12554 | 35032 ft | 459 kts | 135° |
| 2026-05-08 15:47 | 45.03612 | 16.19344 | 35054 ft | 459 kts | 135° |
| 2026-05-08 15:47 | 44.99406 | 16.26218 | 35024 ft | 460 kts | 135° |
| 2026-05-08 15:48 | 44.93151 | 16.36410 | 35043 ft | 459 kts | 135° |
| 2026-05-08 15:49 | 44.88963 | 16.43214 | 35039 ft | 459 kts | 135° |
| 2026-05-08 15:49 | 44.84760 | 16.50025 | 35041 ft | 460 kts | 135° |
| 2026-05-08 15:50 | 44.80562 | 16.56812 | 35031 ft | 459 kts | 135° |
| 2026-05-08 15:50 | 44.76365 | 16.63582 | 35034 ft | 458 kts | 135° |
| 2026-05-08 15:51 | 44.72191 | 16.70298 | 35029 ft | 458 kts | 135° |
| 2026-05-08 15:51 | 44.68002 | 16.77026 | 35043 ft | 457 kts | 135° |
| 2026-05-08 15:52 | 44.63812 | 16.83742 | 35017 ft | 457 kts | 135° |
| 2026-05-08 15:52 | 44.59618 | 16.90443 | 35031 ft | 457 kts | 135° |
| 2026-05-08 15:53 | 44.55554 | 16.97312 | 35035 ft | 458 kts | 132° |
| 2026-05-08 15:53 | 44.51634 | 17.04342 | 35035 ft | 457 kts | 131° |
| 2026-05-08 15:54 | 44.47721 | 17.11362 | 35030 ft | 457 kts | 131° |
| 2026-05-08 15:54 | 44.43780 | 17.18359 | 35029 ft | 458 kts | 131° |
| 2026-05-08 15:55 | 44.39822 | 17.25340 | 35022 ft | 458 kts | 131° |
| 2026-05-08 15:55 | 44.33860 | 17.35812 | 35027 ft | 460 kts | 132° |
| 2026-05-08 15:56 | 44.29860 | 17.42817 | 35027 ft | 462 kts | 132° |
| 2026-05-08 15:56 | 44.25849 | 17.49826 | 35036 ft | 462 kts | 132° |
| 2026-05-08 15:57 | 44.21827 | 17.56838 | 35023 ft | 463 kts | 132° |
| 2026-05-08 15:57 | 44.17803 | 17.63837 | 35040 ft | 463 kts | 132° |
| 2026-05-08 15:58 | 44.13765 | 17.70844 | 35023 ft | 462 kts | 132° |
| 2026-05-08 15:58 | 44.09741 | 17.77809 | 35024 ft | 461 kts | 132° |
| 2026-05-08 15:59 | 44.05735 | 17.84725 | 35028 ft | 458 kts | 132° |
| 2026-05-08 15:59 | 44.01739 | 17.91609 | 35019 ft | 456 kts | 132° |
| 2026-05-08 16:00 | 43.97755 | 17.98453 | 35021 ft | 455 kts | 132° |
| 2026-05-08 16:00 | 43.93774 | 18.05277 | 35004 ft | 454 kts | 132° |
| 2026-05-08 16:01 | 43.89798 | 18.12075 | 34998 ft | 453 kts | 132° |
| 2026-05-08 16:01 | 43.85826 | 18.18852 | 34996 ft | 453 kts | 132° |
| 2026-05-08 16:02 | 43.81843 | 18.25631 | 35003 ft | 454 kts | 132° |
| 2026-05-08 16:02 | 43.77850 | 18.32413 | 34992 ft | 454 kts | 132° |
| 2026-05-08 16:03 | 43.73841 | 18.39203 | 35000 ft | 456 kts | 132° |
| 2026-05-08 16:03 | 43.69813 | 18.46012 | 35011 ft | 458 kts | 132° |
| 2026-05-08 16:04 | 43.65787 | 18.52800 | 34999 ft | 461 kts | 132° |
| 2026-05-08 16:04 | 43.61713 | 18.59657 | 35005 ft | 462 kts | 132° |
| 2026-05-08 16:05 | 43.58299 | 18.65388 | 35015 ft | 461 kts | 132° |
| 2026-05-08 16:05 | 43.54242 | 18.72185 | 35012 ft | 461 kts | 133° |
| 2026-05-08 16:06 | 43.50169 | 18.78992 | 35006 ft | 460 kts | 133° |
| 2026-05-08 16:06 | 43.46099 | 18.85778 | 35000 ft | 459 kts | 132° |
| 2026-05-08 16:07 | 43.42041 | 18.92528 | 35011 ft | 457 kts | 132° |
| 2026-05-08 16:07 | 43.37986 | 18.99258 | 34996 ft | 456 kts | 132° |
| 2026-05-08 16:08 | 43.33939 | 19.05960 | 35003 ft | 455 kts | 132° |
| 2026-05-08 16:08 | 43.29894 | 19.12642 | 34997 ft | 454 kts | 132° |
| 2026-05-08 16:09 | 43.25857 | 19.19294 | 35002 ft | 454 kts | 132° |
| 2026-05-08 16:09 | 43.21809 | 19.25951 | 35009 ft | 454 kts | 132° |
| 2026-05-08 16:10 | 43.17752 | 19.32607 | 35010 ft | 455 kts | 132° |
| 2026-05-08 16:10 | 43.13678 | 19.39277 | 35011 ft | 457 kts | 132° |
| 2026-05-08 16:11 | 43.09586 | 19.45960 | 35007 ft | 458 kts | 132° |
| 2026-05-08 16:11 | 43.05476 | 19.52658 | 35005 ft | 460 kts | 132° |
| 2026-05-08 16:12 | 43.01350 | 19.59366 | 35009 ft | 461 kts | 132° |
| 2026-05-08 16:12 | 42.97211 | 19.66082 | 35013 ft | 463 kts | 132° |
| 2026-05-08 16:13 | 42.93049 | 19.72818 | 35004 ft | 464 kts | 132° |
| 2026-05-08 16:13 | 42.88877 | 19.79557 | 35006 ft | 464 kts | 132° |
| 2026-05-08 16:14 | 42.84732 | 19.86238 | 35014 ft | 464 kts | 132° |
| 2026-05-08 16:14 | 42.80561 | 19.92948 | 35017 ft | 463 kts | 133° |
| 2026-05-08 16:15 | 42.76389 | 19.99646 | 35021 ft | 463 kts | 133° |
| 2026-05-08 16:15 | 42.72244 | 20.06345 | 35022 ft | 463 kts | 132° |
| 2026-05-08 16:16 | 42.68157 | 20.13107 | 35027 ft | 462 kts | 131° |
| 2026-05-08 16:16 | 42.64084 | 20.19853 | 35029 ft | 461 kts | 131° |
| 2026-05-08 16:17 | 42.60697 | 20.25439 | 35027 ft | 460 kts | 131° |
| 2026-05-08 16:17 | 42.55965 | 20.33212 | 35028 ft | 459 kts | 131° |
| 2026-05-08 16:18 | 42.51889 | 20.39887 | 35037 ft | 459 kts | 131° |
| 2026-05-08 16:18 | 42.47804 | 20.46564 | 35035 ft | 461 kts | 131° |
| 2026-05-08 16:19 | 42.43705 | 20.53248 | 35030 ft | 461 kts | 131° |
| 2026-05-08 16:19 | 42.39597 | 20.59933 | 35042 ft | 462 kts | 131° |
| 2026-05-08 16:20 | 42.35474 | 20.66626 | 35033 ft | 465 kts | 131° |
| 2026-05-08 16:20 | 42.31327 | 20.73344 | 35032 ft | 465 kts | 131° |
| 2026-05-08 16:21 | 42.27174 | 20.80058 | 35041 ft | 465 kts | 131° |
| 2026-05-08 16:21 | 42.23030 | 20.86743 | 35046 ft | 464 kts | 131° |
| 2026-05-08 16:22 | 42.18900 | 20.93393 | 35040 ft | 461 kts | 131° |
| 2026-05-08 16:22 | 42.14777 | 21.00019 | 35039 ft | 459 kts | 131° |
| 2026-05-08 16:23 | 42.10642 | 21.06552 | 35037 ft | 457 kts | 135° |
| 2026-05-08 16:23 | 42.06085 | 21.12459 | 35038 ft | 454 kts | 139° |
| 2026-05-08 16:24 | 42.01431 | 21.18196 | 35029 ft | 453 kts | 139° |
| 2026-05-08 16:24 | 41.96815 | 21.23942 | 35030 ft | 452 kts | 138° |
| 2026-05-08 16:25 | 41.92256 | 21.29675 | 35033 ft | 452 kts | 138° |
| 2026-05-08 16:25 | 41.87665 | 21.35461 | 35029 ft | 452 kts | 138° |
| 2026-05-08 16:26 | 41.83074 | 21.41237 | 35037 ft | 453 kts | 138° |
| 2026-05-08 16:26 | 41.78467 | 21.47018 | 35031 ft | 454 kts | 138° |
| 2026-05-08 16:27 | 41.73845 | 21.52806 | 35031 ft | 455 kts | 138° |
| 2026-05-08 16:27 | 41.69202 | 21.58607 | 35025 ft | 457 kts | 138° |
| 2026-05-08 16:28 | 41.64543 | 21.64416 | 35038 ft | 458 kts | 138° |
| 2026-05-08 16:28 | 41.59870 | 21.70230 | 35043 ft | 461 kts | 138° |
| 2026-05-08 16:29 | 41.55151 | 21.76090 | 35030 ft | 464 kts | 138° |
| 2026-05-08 16:29 | 41.50427 | 21.81944 | 35014 ft | 463 kts | 138° |
| 2026-05-08 16:30 | 41.45699 | 21.87792 | 35024 ft | 462 kts | 138° |
| 2026-05-08 16:30 | 41.40981 | 21.93614 | 35041 ft | 461 kts | 138° |
| 2026-05-08 16:31 | 41.36280 | 21.99404 | 35041 ft | 460 kts | 138° |
| 2026-05-08 16:31 | 41.31574 | 22.05189 | 35053 ft | 461 kts | 138° |
| 2026-05-08 16:32 | 41.26882 | 22.10946 | 35029 ft | 462 kts | 139° |
| 2026-05-08 16:32 | 41.22156 | 22.16736 | 35045 ft | 462 kts | 139° |
| 2026-05-08 16:33 | 41.17422 | 22.22522 | 35058 ft | 462 kts | 139° |
| 2026-05-08 16:33 | 41.12552 | 22.28106 | 35054 ft | 463 kts | 142° |
| 2026-05-08 16:34 | 41.07523 | 22.33439 | 35057 ft | 463 kts | 143° |
| 2026-05-08 16:34 | 41.02479 | 22.38778 | 35061 ft | 464 kts | 143° |
| 2026-05-08 16:35 | 40.97442 | 22.44159 | 35052 ft | 465 kts | 143° |
| 2026-05-08 16:35 | 40.92412 | 22.49547 | 35056 ft | 467 kts | 143° |
| 2026-05-08 16:36 | 40.87319 | 22.54993 | 34415 ft | 476 kts | 143° |
| 2026-05-08 16:36 | 40.84747 | 22.57741 | 33780 ft | 474 kts | 142° |
| 2026-05-08 16:36 | 40.82183 | 22.60476 | 33213 ft | 471 kts | 142° |
| 2026-05-08 16:37 | 40.79652 | 22.63174 | 32725 ft | 466 kts | 142° |
| 2026-05-08 16:37 | 40.77144 | 22.65844 | 32283 ft | 461 kts | 142° |
| 2026-05-08 16:37 | 40.74662 | 22.68484 | 31800 ft | 456 kts | 142° |
| 2026-05-08 16:37 | 40.72196 | 22.71103 | 31342 ft | 452 kts | 142° |
| 2026-05-08 16:38 | 40.69765 | 22.73682 | 30894 ft | 447 kts | 142° |
| 2026-05-08 16:38 | 40.67348 | 22.76244 | 30461 ft | 443 kts | 141° |
| 2026-05-08 16:38 | 40.64957 | 22.78776 | 30021 ft | 440 kts | 141° |
| 2026-05-08 16:38 | 40.62578 | 22.81294 | 29505 ft | 436 kts | 141° |
| 2026-05-08 16:39 | 40.60228 | 22.83779 | 29070 ft | 431 kts | 141° |
| 2026-05-08 16:39 | 40.57929 | 22.86208 | 28620 ft | 427 kts | 142° |
| 2026-05-08 16:39 | 40.55626 | 22.88640 | 28187 ft | 422 kts | 142° |
| 2026-05-08 16:39 | 40.53345 | 22.91047 | 27737 ft | 418 kts | 142° |
| 2026-05-08 16:40 | 40.51081 | 22.93433 | 27287 ft | 415 kts | 142° |
| 2026-05-08 16:40 | 40.48829 | 22.95803 | 26848 ft | 412 kts | 142° |
| 2026-05-08 16:40 | 40.46579 | 22.98104 | 26415 ft | 409 kts | 147° |
| 2026-05-08 16:40 | 40.44134 | 22.99965 | 25975 ft | 404 kts | 158° |
| 2026-05-08 16:41 | 40.41525 | 23.01314 | 25558 ft | 401 kts | 161° |
| 2026-05-08 16:41 | 40.38911 | 23.02577 | 25153 ft | 399 kts | 161° |
| 2026-05-08 16:41 | 40.36350 | 23.03810 | 25075 ft | 389 kts | 161° |
| 2026-05-08 16:42 | 40.31359 | 23.06247 | 25061 ft | 384 kts | 161° |
| 2026-05-08 16:42 | 40.28828 | 23.07495 | 25071 ft | 398 kts | 161° |
| 2026-05-08 16:42 | 40.26221 | 23.08786 | 25067 ft | 410 kts | 161° |
| 2026-05-08 16:42 | 40.23499 | 23.10139 | 25059 ft | 416 kts | 161° |
| 2026-05-08 16:43 | 40.20799 | 23.11483 | 25048 ft | 414 kts | 162° |
| 2026-05-08 16:43 | 40.18114 | 23.12819 | 25038 ft | 412 kts | 162° |
| 2026-05-08 16:43 | 40.15431 | 23.14150 | 25046 ft | 410 kts | 162° |
| 2026-05-08 16:43 | 40.12767 | 23.15468 | 25043 ft | 409 kts | 162° |
| 2026-05-08 16:44 | 40.10106 | 23.16783 | 25041 ft | 408 kts | 162° |
| 2026-05-08 16:44 | 40.07496 | 23.18073 | 24644 ft | 397 kts | 162° |
| 2026-05-08 16:44 | 40.04909 | 23.19347 | 23839 ft | 398 kts | 162° |
| 2026-05-08 16:44 | 40.02319 | 23.20622 | 23068 ft | 396 kts | 162° |
| 2026-05-08 16:45 | 39.99744 | 23.21892 | 22269 ft | 395 kts | 163° |
| 2026-05-08 16:45 | 39.97184 | 23.23154 | 21508 ft | 392 kts | 163° |
| 2026-05-08 16:45 | 39.94641 | 23.24406 | 20649 ft | 391 kts | 163° |
| 2026-05-08 16:45 | 39.92091 | 23.25658 | 19725 ft | 392 kts | 163° |
| 2026-05-08 16:46 | 39.90395 | 23.26490 | 19093 ft | 394 kts | 163° |
| 2026-05-08 16:46 | 39.87825 | 23.27743 | 18147 ft | 395 kts | 163° |
| 2026-05-08 16:46 | 39.85252 | 23.28993 | 17216 ft | 393 kts | 164° |
| 2026-05-08 16:46 | 39.82722 | 23.30224 | 16490 ft | 385 kts | 164° |
| 2026-05-08 16:47 | 39.80235 | 23.31434 | 15843 ft | 376 kts | 165° |
| 2026-05-08 16:47 | 39.77811 | 23.32614 | 15212 ft | 369 kts | 165° |
| 2026-05-08 16:47 | 39.75433 | 23.33776 | 14611 ft | 361 kts | 166° |
| 2026-05-08 16:47 | 39.73103 | 23.34915 | 14024 ft | 355 kts | 166° |
| 2026-05-08 16:48 | 39.70821 | 23.36032 | 13545 ft | 345 kts | 167° |
| 2026-05-08 16:48 | 39.68637 | 23.37101 | 13068 ft | 337 kts | 167° |
| 2026-05-08 16:48 | 39.66471 | 23.38158 | 12575 ft | 329 kts | 167° |
| 2026-05-08 16:48 | 39.64349 | 23.39192 | 12094 ft | 322 kts | 167° |
| 2026-05-08 16:49 | 39.62269 | 23.40205 | 11640 ft | 316 kts | 167° |
| 2026-05-08 16:49 | 39.60212 | 23.41204 | 11305 ft | 314 kts | 167° |
| 2026-05-08 16:49 | 39.58167 | 23.42196 | 10949 ft | 314 kts | 167° |
| 2026-05-08 16:49 | 39.56124 | 23.43186 | 10580 ft | 313 kts | 168° |
| 2026-05-08 16:50 | 39.54126 | 23.44157 | 10404 ft | 306 kts | 168° |
| 2026-05-08 16:50 | 39.52157 | 23.45116 | 10246 ft | 300 kts | 168° |
| 2026-05-08 16:50 | 39.50212 | 23.46061 | 10125 ft | 297 kts | 168° |
| 2026-05-08 16:50 | 39.48247 | 23.47011 | 9898 ft | 300 kts | 168° |
| 2026-05-08 16:51 | 39.46298 | 23.47950 | 9574 ft | 305 kts | 168° |
| 2026-05-08 16:51 | 39.44316 | 23.48908 | 9258 ft | 303 kts | 167° |
| 2026-05-08 16:51 | 39.42349 | 23.49862 | 8939 ft | 301 kts | 167° |
| 2026-05-08 16:51 | 39.40392 | 23.50810 | 8617 ft | 299 kts | 167° |
| 2026-05-08 16:52 | 39.38445 | 23.51753 | 8293 ft | 297 kts | 166° |
| 2026-05-08 16:52 | 39.36515 | 23.52688 | 7970 ft | 295 kts | 166° |
| 2026-05-08 16:52 | 39.34598 | 23.53615 | 7667 ft | 293 kts | 166° |
| 2026-05-08 16:52 | 39.32689 | 23.54537 | 7360 ft | 292 kts | 165° |
| 2026-05-08 16:53 | 39.28911 | 23.56362 | 6737 ft | 289 kts | 165° |
| 2026-05-08 16:53 | 39.27035 | 23.57268 | 6430 ft | 284 kts | 164° |
| 2026-05-08 16:53 | 39.25209 | 23.58151 | 6112 ft | 276 kts | 164° |
| 2026-05-08 16:54 | 39.23441 | 23.59003 | 5812 ft | 267 kts | 164° |
| 2026-05-08 16:54 | 39.21753 | 23.59816 | 5553 ft | 257 kts | 164° |
| 2026-05-08 16:54 | 39.20119 | 23.60603 | 5314 ft | 245 kts | 165° |
| 2026-05-08 16:54 | 39.18522 | 23.61115 | 5015 ft | 229 kts | 185° |
| 2026-05-08 16:55 | 39.16990 | 23.60816 | 4802 ft | 219 kts | 199° |
| 2026-05-08 16:55 | 39.15618 | 23.60030 | 4532 ft | 212 kts | 209° |
| 2026-05-08 16:55 | 39.14331 | 23.59176 | 4291 ft | 204 kts | 208° |
| 2026-05-08 16:55 | 39.13098 | 23.58360 | 4075 ft | 194 kts | 208° |
| 2026-05-08 16:56 | 39.11939 | 23.57595 | 3981 ft | 180 kts | 208° |
| 2026-05-08 16:56 | 39.10864 | 23.56888 | 3892 ft | 167 kts | 208° |
| 2026-05-08 16:56 | 39.09842 | 23.56217 | 3843 ft | 165 kts | 207° |
| 2026-05-08 16:56 | 39.08818 | 23.55546 | 3779 ft | 165 kts | 207° |
| 2026-05-08 16:57 | 39.07806 | 23.54885 | 3724 ft | 161 kts | 207° |
| 2026-05-08 16:57 | 39.06815 | 23.54238 | 3646 ft | 159 kts | 207° |
| 2026-05-08 16:57 | 39.05834 | 23.53597 | 3570 ft | 157 kts | 207° |
| 2026-05-08 16:57 | 39.04866 | 23.52966 | 3511 ft | 156 kts | 206° |
| 2026-05-08 16:58 | 39.03912 | 23.52343 | 3417 ft | 152 kts | 205° |
| 2026-05-08 16:58 | 39.02985 | 23.51724 | 3252 ft | 149 kts | 211° |
| 2026-05-08 16:58 | 39.02288 | 23.50727 | 3037 ft | 154 kts | 240° |
| 2026-05-08 16:58 | 39.02049 | 23.49363 | 2844 ft | 161 kts | 267° |
| 2026-05-08 16:59 | 39.02330 | 23.47959 | 2711 ft | 166 kts | 295° |
| 2026-05-08 16:59 | 39.03121 | 23.46872 | 2529 ft | 167 kts | 327° |
| 2026-05-08 16:59 | 39.04220 | 23.46503 | 2364 ft | 163 kts | 2° |
| 2026-05-08 16:59 | 39.05334 | 23.46733 | 2261 ft | 163 kts | 13° |
| 2026-05-08 17:00 | 39.06446 | 23.47047 | 2139 ft | 164 kts | 13° |
| 2026-05-08 17:00 | 39.07541 | 23.47360 | 1998 ft | 161 kts | 14° |
| 2026-05-08 17:00 | 39.08591 | 23.47658 | 1869 ft | 150 kts | 14° |
| 2026-05-08 17:00 | 39.09598 | 23.47947 | 1678 ft | 146 kts | 14° |
| 2026-05-08 17:01 | 39.10588 | 23.48231 | 1505 ft | 146 kts | 13° |
| 2026-05-08 17:01 | 39.11590 | 23.48471 | 1282 ft | 147 kts | 9° |
| 2026-05-08 17:01 | 39.12600 | 23.48629 | 1035 ft | 147 kts | 8° |
| 2026-05-08 17:01 | 39.13602 | 23.48772 | 751 ft | 141 kts | 7° |
| 2026-05-08 17:02 | 39.14542 | 23.49000 | 513 ft | 137 kts | 14° |
| 2026-05-08 17:02 | 39.15447 | 23.49364 | 333 ft | 134 kts | 18° |
| 2026-05-08 17:02 | 39.16316 | 23.49761 | 156 ft | 130 kts | 17° |
| 2026-05-08 17:02 | 39.17161 | 23.50122 | 33 ft | 127 kts | 18° |
| 2026-05-08 17:03 | 39.17771 | 23.50393 | 64 ft | 42 kts | 19° |
| 2026-05-08 17:03 | 39.17918 | 23.50459 | 66 ft | 16 kts | 14° |
| 2026-05-08 17:03 | 39.17951 | 23.50414 | 60 ft | 6 kts | 262° |
| 2026-05-08 17:03 | 39.17939 | 23.50352 | 66 ft | 9 kts | 244° |
| 2026-05-08 17:04 | 39.17908 | 23.50315 | 60 ft | 0 kts | 198° |
| 2026-05-08 17:04 | 39.17899 | 23.50311 | 63 ft | 3 kts | 198° |
| 2026-05-08 17:05 | 39.17869 | 23.50298 | 59 ft | 6 kts | 198° |
| 2026-05-08 17:05 | 39.17825 | 23.50279 | 61 ft | 4 kts | 203° |
| 2026-05-08 17:05 | 39.17830 | 23.50249 | 60 ft | 4 kts | 317° |
| 2026-05-08 17:05 | 39.17854 | 23.50231 | 61 ft | 4 kts | 329° |
| 2026-05-08 17:06 | 39.17876 | 23.50215 | 62 ft | 1 kts | 329° |
| 2026-05-08 17:06 | 39.17876 | 23.50214 | 62 ft | 0 kts | 329° |